aviador You're here:

KGSO Decoded Metar

GREENSBORO in NC, USA
Report Time2018-01-19 10:54:00
UTC Time2018-01-19 11:07:03
Flight Rules vfr VFR
Wind240° at 03 kt
W.Decomp.*RWY 23: 2.9 kt HW 0.9 kt RCW
RWY 32: 0.9 kt HW 2.9 kt LCW
W.Rank240° ranks 4
Current wind is below 240° avg. (7.1)
Visibility9999 m
Phenomena:N/A
Clouds:N/A
Expected CloudBase > 800 ft AGL from Temp-Dew spread
CeilingNone
Temp-7°C (ISA -20)
Dew Point-9°C (86% RH)
AAT-11.1°C
QNH1022 hPa
Density Alt-1,864 ft
Elevation902 ft
Report Wrong Elevation
Raw Report
METAR KGSO 191054Z 24003KT 10SM CLR M07/M09 A3017 RMK AO2 SLP225 T10671089=

Extra information for KGSO:More info

Metar Taf Metar & Taf Last 4 Metars F.Rules Stats Wind Profile Meteogram Temp Stats Airport Information Weather charts Add Link Nearby VenuesMetar ALERT Operation Metar Decoded Social comments

AIRNAV info for KGSO